Time;durP1;ratioP1;P1;durP2;ratioP2;P2;SDS_P1;SDS_P2;PMS_P1;PMS_P2;Temp;Humidity;BMP_temperature;BMP_pressure;BME280_temperature;BME280_humidity;BME280_pressure;Samples;Min_cycle;Max_cycle;Signal;HPM_P1;HPM_P2
2021/07/29 00:01:01;;;;;;;3.30;1.80;;;;;;;;;;5019026;28;20029;-85
2021/07/29 00:03:48;;;;;;;3.72;2.20;;;;;;;;;;5025064;28;20033;-84
2021/07/29 00:06:15;;;;;;;6.57;2.20;;;;;;;;;;5018734;28;20088;-90
2021/07/29 00:08:52;;;;;;;4.47;2.00;;;;;;;;;;5018776;28;20438;-95
2021/07/29 00:11:22;;;;;;;4.97;2.00;;;;;;;;;;5020476;28;20053;-82
2021/07/29 00:13:57;;;;;;;4.13;1.77;;;;;;;;;;5019054;28;20018;-81
2021/07/29 00:16:32;;;;;;;3.70;1.60;;;;;;;;;;5016122;28;20052;-85
2021/07/29 00:19:16;;;;;;;3.40;1.80;;;;;;;;;;5016510;28;20391;-94
2021/07/29 00:21:52;;;;;;;3.15;1.70;;;;;;;;;;5021714;28;20541;-82
2021/07/29 00:24:31;;;;;;;3.47;1.98;;;;;;;;;;5078944;22;20061;-82
2021/07/29 00:26:57;;;;;;;6.65;2.05;;;;;;;;;;5067581;22;20058;-82
2021/07/29 00:32:08;;;;;;;4.03;1.77;;;;;;;;;;5542460;22;20041;-81
2021/07/29 00:34:34;;;;;;;3.33;1.60;;;;;;;;;;5223727;22;20061;-80
2021/07/29 00:42:40;;;;;;;2.72;1.40;;;;;;;;;;5149616;22;20080;-81
2021/07/29 00:45:19;;;;;;;2.15;1.25;;;;;;;;;;5048299;28;20025;-94
2021/07/29 00:47:51;;;;;;;2.17;1.20;;;;;;;;;;5046320;28;20060;-82
2021/07/29 00:50:27;;;;;;;4.63;1.75;;;;;;;;;;5139359;22;20060;-80
2021/07/29 00:52:53;;;;;;;3.10;1.60;;;;;;;;;;5130495;22;20020;-81
2021/07/29 00:55:42;;;;;;;2.35;1.27;;;;;;;;;;5045581;28;20069;-82
2021/07/29 00:58:23;;;;;;;2.47;1.15;;;;;;;;;;5143882;22;20045;-82
2021/07/29 01:01:02;;;;;;;4.05;1.25;;;;;;;;;;5117329;23;20040;-93
2021/07/29 01:03:30;;;;;;;2.83;1.55;;;;;;;;;;5084085;22;20016;-89
2021/07/29 01:09:06;;;;;;;3.63;1.65;;;;;;;;;;5095807;22;20068;-89
2021/07/29 01:11:32;;;;;;;4.15;1.70;;;;;;;;;;5043686;28;20040;-83
2021/07/29 01:13:58;;;;;;;3.30;1.60;;;;;;;;;;5041743;28;20020;-81
2021/07/29 01:16:33;;;;;;;3.35;1.70;;;;;;;;;;5041482;28;20033;-95
2021/07/29 01:19:08;;;;;;;2.70;1.52;;;;;;;;;;5037085;28;20033;-96
2021/07/29 01:21:34;;;;;;;3.83;2.00;;;;;;;;;;5041746;28;20459;-82
2021/07/29 01:24:03;;;;;;;4.60;1.60;;;;;;;;;;5038799;28;20033;-86
2021/07/29 01:26:32;;;;;;;3.97;1.75;;;;;;;;;;5035796;28;20017;-93
2021/07/29 01:29:04;;;;;;;3.67;1.70;;;;;;;;;;5037117;28;20086;-95
2021/07/29 01:31:42;;;;;;;4.38;1.60;;;;;;;;;;5035758;28;20026;-94
2021/07/29 01:36:44;;;;;;;2.92;1.73;;;;;;;;;;5087462;28;20099;-88
2021/07/29 01:39:30;;;;;;;2.83;1.45;;;;;;;;;;5076820;28;20112;-83
2021/07/29 01:41:57;;;;;;;3.67;2.03;;;;;;;;;;5059649;28;20039;-94
2021/07/29 01:44:29;;;;;;;4.65;1.65;;;;;;;;;;5080385;28;20060;-93
2021/07/29 01:47:30;;;;;;;3.90;2.10;;;;;;;;;;5081737;28;20025;-95
2021/07/29 01:50:16;;;;;;;9.88;2.17;;;;;;;;;;5084035;28;20032;-83
2021/07/29 01:52:42;;;;;;;3.05;1.58;;;;;;;;;;5050258;28;20048;-84
2021/07/29 01:55:14;;;;;;;3.22;1.70;;;;;;;;;;5080605;28;20031;-94
2021/07/29 01:58:06;;;;;;;2.42;1.52;;;;;;;;;;5062148;28;20037;-90
2021/07/29 02:00:32;;;;;;;6.35;1.58;;;;;;;;;;5080133;28;20029;-93
2021/07/29 02:03:01;;;;;;;2.72;1.58;;;;;;;;;;5080764;28;20112;-88
2021/07/29 02:05:29;;;;;;;3.28;1.88;;;;;;;;;;5079993;28;20063;-92
2021/07/29 02:07:57;;;;;;;3.13;1.63;;;;;;;;;;5080019;28;20534;-94
2021/07/29 02:10:43;;;;;;;3.42;1.88;;;;;;;;;;5079136;28;20489;-96
2021/07/29 02:13:11;;;;;;;4.10;1.88;;;;;;;;;;5079310;28;20028;-95
2021/07/29 02:15:56;;;;;;;4.93;2.17;;;;;;;;;;5077887;28;20057;-94
2021/07/29 02:18:22;;;;;;;6.10;2.35;;;;;;;;;;5080210;28;20039;-83
2021/07/29 02:20:48;;;;;;;5.93;2.10;;;;;;;;;;5077730;28;20029;-95
2021/07/29 02:23:37;;;;;;;6.10;2.55;;;;;;;;;;5078832;28;20112;-94
2021/07/29 02:26:27;;;;;;;2.97;2.05;;;;;;;;;;5078534;28;20036;-96
2021/07/29 02:28:56;;;;;;;5.53;2.13;;;;;;;;;;5078760;28;20033;-96
2021/07/29 02:31:26;;;;;;;5.30;2.22;;;;;;;;;;5060418;28;20111;-90
2021/07/29 02:33:52;;;;;;;4.43;2.30;;;;;;;;;;5060391;28;20039;-83
2021/07/29 02:36:20;;;;;;;7.03;2.60;;;;;;;;;;5078426;28;20137;-84
2021/07/29 02:38:46;;;;;;;4.82;2.20;;;;;;;;;;5078769;28;20095;-96
2021/07/29 02:41:13;;;;;;;4.10;2.15;;;;;;;;;;5044041;28;20465;-95
2021/07/29 02:43:50;;;;;;;3.78;2.30;;;;;;;;;;5062955;28;20058;-90
2021/07/29 02:46:18;;;;;;;3.15;2.05;;;;;;;;;;5064709;28;20009;-94
2021/07/29 02:48:45;;;;;;;4.43;2.20;;;;;;;;;;5048810;28;20052;-96
2021/07/29 02:51:12;;;;;;;9.90;2.50;;;;;;;;;;5077776;28;20025;-96
2021/07/29 02:53:57;;;;;;;4.10;2.15;;;;;;;;;;5044336;28;20077;-95
2021/07/29 02:56:29;;;;;;;4.50;2.13;;;;;;;;;;5080196;28;20052;-96
2021/07/29 02:58:55;;;;;;;3.88;1.98;;;;;;;;;;5079231;28;20392;-85
2021/07/29 03:01:32;;;;;;;7.85;2.33;;;;;;;;;;5081494;28;20027;-96
2021/07/29 03:04:04;;;;;;;3.55;1.85;;;;;;;;;;5067170;28;20041;-96
2021/07/29 03:06:31;;;;;;;4.07;2.15;;;;;;;;;;5076977;28;20039;-94
2021/07/29 03:08:59;;;;;;;7.68;2.17;;;;;;;;;;5078638;28;20055;-86
2021/07/29 03:11:27;;;;;;;4.80;2.17;;;;;;;;;;5079315;28;20086;-94
2021/07/29 03:14:19;;;;;;;4.00;2.00;;;;;;;;;;5044854;28;20389;-96
2021/07/29 03:16:54;;;;;;;5.15;2.53;;;;;;;;;;5081708;28;20025;-95
2021/07/29 03:19:20;;;;;;;3.67;2.05;;;;;;;;;;5079150;28;20024;-96
2021/07/29 03:21:46;;;;;;;6.72;1.88;;;;;;;;;;5076897;28;20112;-83
2021/07/29 03:24:34;;;;;;;6.15;2.30;;;;;;;;;;5078866;28;20388;-83
2021/07/29 03:27:02;;;;;;;5.53;2.17;;;;;;;;;;5078993;28;20021;-81
2021/07/29 03:29:51;;;;;;;4.45;2.30;;;;;;;;;;5082573;28;20028;-96
2021/07/29 03:32:37;;;;;;;5.70;2.13;;;;;;;;;;5078802;28;20025;-93
2021/07/29 03:35:25;;;;;;;5.05;2.08;;;;;;;;;;5078547;28;20472;-94
2021/07/29 03:38:00;;;;;;;9.52;2.83;;;;;;;;;;5081020;28;20468;-91
2021/07/29 03:40:28;;;;;;;7.20;2.63;;;;;;;;;;5077734;28;20028;-83
2021/07/29 03:42:56;;;;;;;3.97;2.45;;;;;;;;;;5079753;28;20035;-81
2021/07/29 03:45:22;;;;;;;7.03;2.65;;;;;;;;;;5076232;28;20032;-83
2021/07/29 03:47:48;;;;;;;4.25;2.50;;;;;;;;;;5080101;28;20079;-84
2021/07/29 03:50:15;;;;;;;5.10;2.78;;;;;;;;;;5077336;28;20507;-96
2021/07/29 03:53:06;;;;;;;8.95;2.92;;;;;;;;;;5080189;28;20495;-85
2021/07/29 03:55:33;;;;;;;4.55;2.38;;;;;;;;;;5063352;28;20047;-82
2021/07/29 03:58:01;;;;;;;5.70;2.50;;;;;;;;;;5079679;28;20024;-92
2021/07/29 04:00:33;;;;;;;7.93;2.60;;;;;;;;;;5077043;28;20087;-95
2021/07/29 04:03:05;;;;;;;3.83;2.28;;;;;;;;;;5075789;22;20136;-95
2021/07/29 04:05:44;;;;;;;9.38;2.60;;;;;;;;;;5035520;28;20497;-95
2021/07/29 04:08:10;;;;;;;4.88;2.53;;;;;;;;;;5036775;28;20036;-86
2021/07/29 04:10:36;;;;;;;5.85;2.55;;;;;;;;;;5038914;28;20085;-87
2021/07/29 04:13:22;;;;;;;7.32;2.80;;;;;;;;;;5036955;28;20078;-95
2021/07/29 04:15:58;;;;;;;5.35;2.75;;;;;;;;;;5036527;28;20025;-83
2021/07/29 04:18:25;;;;;;;7.45;2.42;;;;;;;;;;5037205;28;20025;-85
2021/07/29 04:20:52;;;;;;;9.27;2.60;;;;;;;;;;5035307;28;20389;-95
2021/07/29 04:23:20;;;;;;;11.80;2.90;;;;;;;;;;5034171;28;20029;-95
2021/07/29 04:25:46;;;;;;;4.43;2.70;;;;;;;;;;5036607;28;20030;-83
2021/07/29 04:28:13;;;;;;;5.15;2.88;;;;;;;;;;5033708;28;20026;-82
2021/07/29 04:30:39;;;;;;;5.72;2.78;;;;;;;;;;5036551;28;20057;-82
2021/07/29 04:33:09;;;;;;;5.35;2.90;;;;;;;;;;5035293;28;20041;-94
2021/07/29 04:35:35;;;;;;;7.53;2.65;;;;;;;;;;5034335;28;20109;-83
2021/07/29 04:38:02;;;;;;;4.82;2.17;;;;;;;;;;5034834;28;20421;-94
2021/07/29 04:40:29;;;;;;;3.33;1.77;;;;;;;;;;5017789;28;20033;-93
2021/07/29 04:42:56;;;;;;;3.42;1.85;;;;;;;;;;5033323;28;20080;-83
2021/07/29 04:45:22;;;;;;;6.25;1.65;;;;;;;;;;5033965;28;20022;-84
2021/07/29 04:47:49;;;;;;;3.15;1.55;;;;;;;;;;5035490;28;20063;-83
2021/07/29 04:50:15;;;;;;;2.70;1.40;;;;;;;;;;5037746;28;20115;-96
2021/07/29 04:52:41;;;;;;;3.50;1.75;;;;;;;;;;5018829;28;20120;-95
2021/07/29 04:55:08;;;;;;;3.55;1.50;;;;;;;;;;5035282;28;20051;-82
2021/07/29 04:57:34;;;;;;;2.88;1.20;;;;;;;;;;5035013;28;20076;-95
2021/07/29 05:00:00;;;;;;;4.28;1.70;;;;;;;;;;5034226;28;20543;-85
2021/07/29 05:02:27;;;;;;;2.38;1.35;;;;;;;;;;5035495;28;20042;-93
2021/07/29 05:04:53;;;;;;;3.08;1.58;;;;;;;;;;5198152;22;20821;-91
2021/07/29 05:07:19;;;;;;;3.20;1.73;;;;;;;;;;5034434;28;20121;-94
2021/07/29 05:09:45;;;;;;;2.72;1.40;;;;;;;;;;5035607;28;20528;-95
2021/07/29 05:12:11;;;;;;;3.55;1.42;;;;;;;;;;5033530;28;20026;-96
2021/07/29 05:14:37;;;;;;;2.90;1.45;;;;;;;;;;5034091;28;20025;-85
2021/07/29 05:17:04;;;;;;;4.50;1.77;;;;;;;;;;5032321;28;20029;-94
2021/07/29 05:19:31;;;;;;;2.42;1.38;;;;;;;;;;5035277;28;20393;-89
2021/07/29 05:21:57;;;;;;;3.22;1.50;;;;;;;;;;5035731;28;20367;-92
2021/07/29 05:24:23;;;;;;;2.80;1.70;;;;;;;;;;5035452;28;20033;-84
2021/07/29 05:26:50;;;;;;;2.85;1.65;;;;;;;;;;5035027;28;20087;-87
2021/07/29 05:29:16;;;;;;;2.90;1.70;;;;;;;;;;5036244;28;20083;-85
2021/07/29 05:31:42;;;;;;;3.90;1.67;;;;;;;;;;5035755;28;20068;-85
2021/07/29 05:34:12;;;;;;;3.72;1.73;;;;;;;;;;5036891;28;20037;-91
2021/07/29 05:36:38;;;;;;;3.15;1.50;;;;;;;;;;5035133;28;20021;-84
2021/07/29 05:39:05;;;;;;;3.50;1.58;;;;;;;;;;5035865;28;20029;-85
2021/07/29 05:41:31;;;;;;;4.20;1.60;;;;;;;;;;5036588;28;20072;-85
2021/07/29 05:43:57;;;;;;;2.75;1.65;;;;;;;;;;5035249;28;20043;-93
2021/07/29 05:46:23;;;;;;;3.35;1.67;;;;;;;;;;5035789;28;20432;-85
2021/07/29 05:48:50;;;;;;;2.95;1.80;;;;;;;;;;5037455;28;20017;-94
2021/07/29 05:51:16;;;;;;;3.47;1.77;;;;;;;;;;5034882;28;20034;-84
2021/07/29 05:53:42;;;;;;;8.45;2.42;;;;;;;;;;5034880;28;20108;-83
2021/07/29 05:56:08;;;;;;;2.90;1.95;;;;;;;;;;5034973;28;20500;-84
2021/07/29 05:58:34;;;;;;;6.18;1.85;;;;;;;;;;5034428;28;20032;-83
2021/07/29 06:01:07;;;;;;;3.45;1.52;;;;;;;;;;5036707;28;20033;-92
2021/07/29 06:03:34;;;;;;;3.38;1.70;;;;;;;;;;5034560;28;20044;-86
2021/07/29 06:06:02;;;;;;;4.53;1.80;;;;;;;;;;4989779;28;1312941;-86
2021/07/29 06:08:28;;;;;;;4.50;1.63;;;;;;;;;;5038544;28;20087;-92
2021/07/29 06:10:54;;;;;;;3.00;1.80;;;;;;;;;;5036126;28;20055;-84
2021/07/29 06:13:20;;;;;;;4.65;1.92;;;;;;;;;;5035765;28;20032;-88
2021/07/29 06:15:46;;;;;;;2.83;1.67;;;;;;;;;;5035405;28;20025;-85
2021/07/29 06:18:13;;;;;;;6.07;2.00;;;;;;;;;;5036628;28;20060;-83
2021/07/29 06:20:40;;;;;;;4.20;1.80;;;;;;;;;;5035600;28;20029;-82
2021/07/29 06:23:06;;;;;;;2.35;1.52;;;;;;;;;;5035771;28;20033;-85
2021/07/29 06:25:32;;;;;;;3.42;1.80;;;;;;;;;;5036964;28;20064;-95
2021/07/29 06:27:58;;;;;;;2.25;1.50;;;;;;;;;;5035296;28;20018;-85
2021/07/29 06:30:25;;;;;;;2.45;1.48;;;;;;;;;;5035113;28;20033;-82
2021/07/29 06:32:51;;;;;;;2.53;1.55;;;;;;;;;;5036908;28;20033;-84
2021/07/29 06:35:17;;;;;;;3.80;1.75;;;;;;;;;;5036469;28;20029;-90
2021/07/29 06:37:43;;;;;;;7.38;1.90;;;;;;;;;;5035698;28;20485;-84
2021/07/29 06:40:10;;;;;;;2.50;1.48;;;;;;;;;;5035825;28;20036;-90
2021/07/29 06:42:36;;;;;;;9.18;2.05;;;;;;;;;;5035807;28;20022;-85
2021/07/29 06:45:03;;;;;;;5.80;1.50;;;;;;;;;;5035263;28;20124;-82
2021/07/29 06:47:31;;;;;;;2.30;1.52;;;;;;;;;;5034600;28;20029;-82
2021/07/29 06:49:58;;;;;;;5.10;1.58;;;;;;;;;;5036508;28;20057;-84
2021/07/29 06:52:24;;;;;;;2.80;1.60;;;;;;;;;;5034850;28;20022;-83
2021/07/29 06:54:50;;;;;;;4.57;1.63;;;;;;;;;;5036633;28;20022;-83
2021/07/29 06:57:16;;;;;;;3.13;1.48;;;;;;;;;;5036425;28;20033;-94
2021/07/29 06:59:42;;;;;;;7.25;1.70;;;;;;;;;;5035161;28;20033;-83
2021/07/29 07:02:10;;;;;;;2.85;1.60;;;;;;;;;;5036062;28;20470;-84
2021/07/29 07:04:36;;;;;;;3.60;1.58;;;;;;;;;;5035362;28;20482;-84
2021/07/29 07:07:03;;;;;;;3.20;1.25;;;;;;;;;;5036520;28;20075;-88
2021/07/29 07:09:32;;;;;;;2.88;1.42;;;;;;;;;;5036932;28;20440;-84
2021/07/29 07:11:58;;;;;;;2.83;1.58;;;;;;;;;;5034622;28;20029;-83
2021/07/29 07:14:25;;;;;;;4.63;1.52;;;;;;;;;;5036381;28;20026;-91
2021/07/29 07:16:51;;;;;;;4.13;1.48;;;;;;;;;;5034675;28;20099;-92
2021/07/29 07:19:17;;;;;;;3.03;1.48;;;;;;;;;;5034729;28;20100;-82
2021/07/29 07:21:44;;;;;;;2.40;1.50;;;;;;;;;;5034321;28;20030;-84
2021/07/29 07:24:10;;;;;;;3.90;1.63;;;;;;;;;;5034099;28;20458;-86
2021/07/29 07:26:36;;;;;;;2.78;1.55;;;;;;;;;;5035762;28;20101;-91
2021/07/29 07:29:03;;;;;;;2.88;1.60;;;;;;;;;;5034000;28;20434;-94
2021/07/29 07:31:29;;;;;;;4.72;1.80;;;;;;;;;;5035581;28;20045;-88
2021/07/29 07:33:57;;;;;;;3.38;1.73;;;;;;;;;;5033788;28;20033;-92
2021/07/29 07:36:23;;;;;;;4.88;1.80;;;;;;;;;;5034003;28;20018;-84
2021/07/29 07:38:51;;;;;;;4.05;1.60;;;;;;;;;;5035186;28;20021;-85
2021/07/29 07:41:17;;;;;;;1.98;1.27;;;;;;;;;;5034797;28;20018;-86
2021/07/29 07:43:43;;;;;;;2.75;1.75;;;;;;;;;;5035270;28;20044;-83
2021/07/29 07:46:09;;;;;;;2.28;1.52;;;;;;;;;;5034100;28;20068;-84
2021/07/29 07:48:36;;;;;;;3.20;1.55;;;;;;;;;;5034117;28;20029;-96
2021/07/29 07:51:02;;;;;;;3.15;1.30;;;;;;;;;;5034770;28;20021;-92
2021/07/29 07:53:29;;;;;;;5.68;1.75;;;;;;;;;;5034138;28;20394;-85
2021/07/29 07:55:55;;;;;;;8.75;2.00;;;;;;;;;;5035773;28;20356;-95
2021/07/29 07:58:22;;;;;;;2.83;1.58;;;;;;;;;;5033699;28;20029;-84
2021/07/29 08:00:48;;;;;;;3.88;1.80;;;;;;;;;;5034612;28;20018;-87
2021/07/29 08:03:14;;;;;;;3.08;1.60;;;;;;;;;;5033190;28;20037;-90
2021/07/29 08:05:41;;;;;;;6.68;1.65;;;;;;;;;;5033315;28;20160;-83
2021/07/29 08:08:08;;;;;;;2.33;1.35;;;;;;;;;;5033373;28;20121;-93
2021/07/29 08:10:38;;;;;;;3.42;1.65;;;;;;;;;;5034397;28;20022;-92
2021/07/29 08:13:05;;;;;;;3.25;1.52;;;;;;;;;;5033788;28;20025;-83
2021/07/29 08:15:32;;;;;;;2.70;1.48;;;;;;;;;;5034731;28;20041;-84
2021/07/29 08:17:58;;;;;;;2.20;1.30;;;;;;;;;;5032885;28;20032;-82
2021/07/29 08:20:25;;;;;;;2.63;1.50;;;;;;;;;;5034427;28;20026;-85
2021/07/29 08:22:55;;;;;;;2.75;1.35;;;;;;;;;;5034246;28;20037;-90
2021/07/29 08:25:22;;;;;;;2.97;1.52;;;;;;;;;;5034688;28;20037;-84
2021/07/29 08:27:52;;;;;;;2.83;1.52;;;;;;;;;;5032869;28;20103;-85
2021/07/29 08:30:20;;;;;;;6.32;1.42;;;;;;;;;;5033176;28;20075;-93
2021/07/29 08:32:46;;;;;;;2.15;1.10;;;;;;;;;;5034309;28;20026;-84
2021/07/29 08:35:13;;;;;;;2.33;1.30;;;;;;;;;;5033087;28;20053;-82
2021/07/29 08:37:44;;;;;;;3.08;1.50;;;;;;;;;;5033213;28;20060;-89
2021/07/29 08:40:11;;;;;;;2.45;1.35;;;;;;;;;;5033682;28;20486;-90
2021/07/29 08:42:37;;;;;;;2.47;1.30;;;;;;;;;;5033098;28;20478;-91
2021/07/29 08:45:04;;;;;;;2.75;1.30;;;;;;;;;;5034961;28;20501;-81
2021/07/29 08:47:33;;;;;;;4.13;1.17;;;;;;;;;;5032698;28;20024;-82
2021/07/29 08:50:03;;;;;;;2.00;1.10;;;;;;;;;;5034005;28;20092;-84
2021/07/29 08:52:29;;;;;;;3.33;1.30;;;;;;;;;;5032442;28;20021;-84
2021/07/29 08:54:55;;;;;;;2.60;1.30;;;;;;;;;;5032671;28;20029;-84
2021/07/29 08:57:28;;;;;;;3.35;1.25;;;;;;;;;;5032998;28;20032;-83
2021/07/29 08:59:55;;;;;;;2.20;1.20;;;;;;;;;;5033474;28;20033;-84
2021/07/29 09:02:25;;;;;;;1.77;1.08;;;;;;;;;;5033228;28;20024;-83
2021/07/29 09:05:06;;;;;;;2.95;1.33;;;;;;;;;;5033268;28;20033;-93
2021/07/29 09:07:33;;;;;;;3.38;1.08;;;;;;;;;;5038104;28;20049;-94
2021/07/29 09:09:59;;;;;;;1.70;1.05;;;;;;;;;;5034742;28;20482;-96
2021/07/29 09:12:26;;;;;;;1.90;1.08;;;;;;;;;;5042032;28;20025;-95
2021/07/29 09:14:53;;;;;;;2.50;1.20;;;;;;;;;;5034930;28;20025;-86
2021/07/29 09:17:20;;;;;;;1.95;1.15;;;;;;;;;;5035080;28;20121;-91
2021/07/29 09:19:47;;;;;;;2.50;1.10;;;;;;;;;;5033389;28;20501;-92
2021/07/29 09:22:15;;;;;;;2.60;1.20;;;;;;;;;;5034369;28;20437;-94
2021/07/29 09:25:00;;;;;;;4.05;1.40;;;;;;;;;;5033311;28;20045;-84
2021/07/29 09:27:38;;;;;;;5.18;1.27;;;;;;;;;;5033263;28;20030;-94
2021/07/29 09:30:24;;;;;;;2.20;0.98;;;;;;;;;;5033944;28;20110;-96
2021/07/29 09:32:51;;;;;;;3.20;1.23;;;;;;;;;;5034125;28;20025;-83
2021/07/29 09:35:34;;;;;;;2.47;1.20;;;;;;;;;;5034880;28;20034;-86
2021/07/29 09:38:02;;;;;;;1.92;1.13;;;;;;;;;;5032176;28;20033;-84
2021/07/29 09:40:40;;;;;;;4.65;1.20;;;;;;;;;;5033144;28;20030;-84
2021/07/29 09:43:11;;;;;;;2.05;1.15;;;;;;;;;;5031950;28;20405;-84
2021/07/29 09:45:37;;;;;;;1.90;1.00;;;;;;;;;;5032864;28;20087;-82
2021/07/29 09:48:05;;;;;;;1.80;1.10;;;;;;;;;;5033045;28;20060;-85
2021/07/29 09:50:32;;;;;;;2.45;0.90;;;;;;;;;;5032871;28;20057;-89
2021/07/29 09:52:59;;;;;;;1.75;0.98;;;;;;;;;;5033638;28;20147;-88
2021/07/29 09:55:29;;;;;;;1.77;0.95;;;;;;;;;;5034974;28;20466;-93
2021/07/29 09:58:00;;;;;;;1.88;1.10;;;;;;;;;;5034884;28;20025;-93
2021/07/29 10:00:27;;;;;;;1.75;1.10;;;;;;;;;;5032634;28;20059;-94
2021/07/29 10:02:56;;;;;;;2.03;1.02;;;;;;;;;;5035071;28;20385;-82
2021/07/29 10:05:29;;;;;;;2.80;1.17;;;;;;;;;;5020253;28;20049;-88
2021/07/29 10:07:57;;;;;;;3.38;1.30;;;;;;;;;;5036903;28;20167;-89
2021/07/29 10:10:25;;;;;;;1.77;1.08;;;;;;;;;;5037211;28;20025;-85
2021/07/29 10:12:53;;;;;;;2.00;1.08;;;;;;;;;;5035883;28;20060;-82
2021/07/29 10:15:38;;;;;;;2.22;1.30;;;;;;;;;;5036676;28;20383;-81
2021/07/29 10:18:06;;;;;;;2.28;1.20;;;;;;;;;;5035751;28;20031;-90
2021/07/29 10:20:33;;;;;;;2.30;1.05;;;;;;;;;;5035830;28;20025;-87
2021/07/29 10:23:15;;;;;;;2.60;1.20;;;;;;;;;;5036964;28;20359;-78
2021/07/29 10:25:54;;;;;;;2.42;1.13;;;;;;;;;;5036683;28;20576;-78
2021/07/29 10:28:27;;;;;;;3.03;1.30;;;;;;;;;;5034788;28;20025;-84
2021/07/29 10:30:54;;;;;;;1.90;1.15;;;;;;;;;;5034956;28;20029;-81
2021/07/29 10:33:21;;;;;;;4.15;1.10;;;;;;;;;;5034899;28;20386;-81
2021/07/29 10:35:47;;;;;;;2.95;1.38;;;;;;;;;;5034824;28;20021;-83
2021/07/29 10:38:14;;;;;;;2.35;1.40;;;;;;;;;;5035015;28;20433;-80
2021/07/29 10:40:42;;;;;;;2.53;1.30;;;;;;;;;;5034654;28;20030;-83
2021/07/29 10:43:26;;;;;;;2.83;1.65;;;;;;;;;;5035871;28;20036;-81
2021/07/29 10:45:56;;;;;;;2.30;1.50;;;;;;;;;;5035965;28;20364;-82
2021/07/29 10:48:40;;;;;;;2.22;1.33;;;;;;;;;;5036559;28;20045;-93
2021/07/29 10:51:19;;;;;;;3.40;1.70;;;;;;;;;;5035131;28;20052;-85
2021/07/29 10:53:47;;;;;;;4.03;1.60;;;;;;;;;;5034350;28;20155;-94
2021/07/29 10:56:15;;;;;;;4.05;1.50;;;;;;;;;;5036522;28;20035;-95
2021/07/29 10:58:44;;;;;;;3.83;1.67;;;;;;;;;;5036381;28;20128;-83
2021/07/29 11:01:11;;;;;;;3.58;1.80;;;;;;;;;;5035584;28;20025;-94
2021/07/29 11:03:56;;;;;;;5.32;1.70;;;;;;;;;;5035355;28;20544;-88
2021/07/29 11:06:36;;;;;;;3.20;1.88;;;;;;;;;;5035096;28;20053;-91
2021/07/29 11:09:14;;;;;;;4.03;1.75;;;;;;;;;;5037556;28;20021;-85
2021/07/29 11:11:41;;;;;;;3.22;1.75;;;;;;;;;;5034706;28;20104;-93
2021/07/29 11:14:08;;;;;;;4.70;1.80;;;;;;;;;;5036168;28;20025;-87
2021/07/29 11:16:35;;;;;;;3.28;1.73;;;;;;;;;;5035273;28;20029;-94
2021/07/29 11:19:04;;;;;;;4.30;1.73;;;;;;;;;;5035645;28;20033;-84
2021/07/29 11:21:30;;;;;;;5.32;1.88;;;;;;;;;;5035101;28;20495;-89
2021/07/29 11:23:57;;;;;;;4.78;2.03;;;;;;;;;;5036570;28;20041;-82
2021/07/29 11:26:23;;;;;;;4.75;1.80;;;;;;;;;;5036152;28;20035;-88
2021/07/29 11:29:06;;;;;;;4.28;2.20;;;;;;;;;;5035053;28;20525;-94
2021/07/29 11:31:33;;;;;;;3.83;1.63;;;;;;;;;;5034466;28;20033;-86
2021/07/29 11:33:59;;;;;;;3.35;1.85;;;;;;;;;;5035390;28;20471;-93
2021/07/29 11:36:26;;;;;;;3.90;2.05;;;;;;;;;;5035486;28;20025;-82
2021/07/29 11:39:00;;;;;;;3.00;1.70;;;;;;;;;;5034565;28;20029;-89
2021/07/29 11:41:27;;;;;;;4.18;1.90;;;;;;;;;;5035659;28;20014;-82
2021/07/29 11:43:54;;;;;;;2.65;1.58;;;;;;;;;;5036182;28;20038;-94
2021/07/29 11:46:21;;;;;;;3.17;1.80;;;;;;;;;;5034363;28;20235;-83
2021/07/29 11:48:47;;;;;;;3.42;1.85;;;;;;;;;;5035365;28;20030;-83
2021/07/29 11:51:14;;;;;;;4.40;1.52;;;;;;;;;;5035161;28;20467;-89
2021/07/29 11:53:42;;;;;;;2.78;1.40;;;;;;;;;;5035045;28;20029;-86
2021/07/29 11:56:09;;;;;;;3.58;2.00;;;;;;;;;;5036201;28;20060;-90
2021/07/29 11:58:41;;;;;;;3.63;2.08;;;;;;;;;;5035003;28;20447;-82
2021/07/29 12:01:11;;;;;;;3.70;1.85;;;;;;;;;;5034600;28;20112;-85
2021/07/29 12:03:40;;;;;;;4.43;1.95;;;;;;;;;;5035432;28;20041;-93
2021/07/29 12:06:07;;;;;;;4.40;2.00;;;;;;;;;;5033646;28;20124;-85
2021/07/29 12:08:34;;;;;;;4.95;1.90;;;;;;;;;;5033851;28;20029;-82
2021/07/29 12:11:01;;;;;;;4.55;1.63;;;;;;;;;;5035141;28;20053;-89
2021/07/29 12:13:30;;;;;;;4.43;2.10;;;;;;;;;;5035065;28;20026;-95
2021/07/29 12:15:59;;;;;;;3.25;1.73;;;;;;;;;;5033812;28;20052;-85
2021/07/29 12:18:26;;;;;;;3.13;1.50;;;;;;;;;;5035542;28;20033;-85
2021/07/29 12:20:54;;;;;;;3.75;1.90;;;;;;;;;;5035243;28;20144;-89
2021/07/29 12:23:21;;;;;;;4.78;1.73;;;;;;;;;;5033292;28;20056;-83
2021/07/29 12:25:48;;;;;;;4.00;1.92;;;;;;;;;;5033893;28;20116;-93
2021/07/29 12:28:15;;;;;;;3.28;1.80;;;;;;;;;;5033859;28;20112;-84
2021/07/29 12:30:42;;;;;;;3.28;1.73;;;;;;;;;;5034955;28;20410;-83
2021/07/29 12:33:10;;;;;;;4.00;1.70;;;;;;;;;;5035221;28;20030;-82
2021/07/29 12:35:37;;;;;;;2.53;1.52;;;;;;;;;;5033358;28;20040;-84
2021/07/29 12:38:04;;;;;;;2.63;1.67;;;;;;;;;;5033308;28;20112;-91
2021/07/29 12:40:31;;;;;;;2.50;1.48;;;;;;;;;;5034534;28;20029;-82
2021/07/29 12:43:16;;;;;;;4.50;1.80;;;;;;;;;;5035314;28;20075;-89
2021/07/29 12:45:53;;;;;;;2.78;1.77;;;;;;;;;;5034081;28;20034;-90
2021/07/29 12:48:20;;;;;;;3.08;1.60;;;;;;;;;;5033143;28;20018;-83
2021/07/29 12:50:47;;;;;;;2.90;1.77;;;;;;;;;;5035027;28;20051;-91
2021/07/29 12:53:14;;;;;;;3.65;1.70;;;;;;;;;;5035472;28;20022;-89
2021/07/29 12:55:41;;;;;;;3.13;1.52;;;;;;;;;;5033533;28;20029;-92
2021/07/29 12:58:08;;;;;;;3.90;1.83;;;;;;;;;;5034998;28;20032;-87
2021/07/29 13:00:38;;;;;;;3.17;1.80;;;;;;;;;;5032860;28;20029;-86
2021/07/29 13:03:27;;;;;;;3.10;1.90;;;;;;;;;;5033545;28;20029;-94
2021/07/29 13:05:58;;;;;;;2.65;1.63;;;;;;;;;;5032617;28;20045;-90
2021/07/29 13:08:25;;;;;;;6.10;1.80;;;;;;;;;;5033209;28;20064;-89
2021/07/29 13:10:52;;;;;;;5.05;1.80;;;;;;;;;;5033942;28;20561;-85
2021/07/29 13:13:22;;;;;;;2.95;1.77;;;;;;;;;;5033382;28;20026;-83
2021/07/29 13:15:48;;;;;;;4.45;1.63;;;;;;;;;;5034326;28;20052;-82
2021/07/29 13:18:15;;;;;;;3.00;1.63;;;;;;;;;;5033775;28;20029;-93
2021/07/29 13:20:41;;;;;;;4.45;1.75;;;;;;;;;;5034791;28;20044;-91
2021/07/29 13:23:08;;;;;;;2.63;1.73;;;;;;;;;;5034398;28;20102;-94
2021/07/29 13:25:34;;;;;;;3.08;1.90;;;;;;;;;;5033706;28;20389;-91
2021/07/29 13:28:01;;;;;;;3.55;1.75;;;;;;;;;;5035312;28;20028;-85
2021/07/29 13:30:28;;;;;;;2.60;1.55;;;;;;;;;;5032779;28;20541;-83
2021/07/29 13:32:56;;;;;;;3.28;1.58;;;;;;;;;;5033684;28;20100;-94
2021/07/29 13:35:22;;;;;;;3.72;1.67;;;;;;;;;;5034260;28;20025;-83
2021/07/29 13:37:48;;;;;;;2.83;2.00;;;;;;;;;;5032922;28;20084;-89
2021/07/29 13:40:15;;;;;;;4.10;1.75;;;;;;;;;;5036118;28;20080;-93
2021/07/29 13:42:42;;;;;;;3.67;1.90;;;;;;;;;;5039052;28;20112;-88
2021/07/29 13:45:18;;;;;;;3.55;2.00;;;;;;;;;;5038680;28;20036;-92
2021/07/29 13:47:51;;;;;;;4.80;2.30;;;;;;;;;;5036852;28;20029;-92
2021/07/29 13:50:19;;;;;;;4.40;2.15;;;;;;;;;;5037071;28;20033;-93
2021/07/29 13:52:46;;;;;;;3.55;1.90;;;;;;;;;;5037800;28;20034;-93
2021/07/29 13:55:13;;;;;;;2.72;1.45;;;;;;;;;;5037820;28;20026;-82
2021/07/29 13:57:40;;;;;;;3.17;1.67;;;;;;;;;;5036485;28;20033;-84
2021/07/29 14:00:08;;;;;;;2.42;1.50;;;;;;;;;;5037733;28;20458;-90
2021/07/29 14:02:35;;;;;;;4.88;1.52;;;;;;;;;;5036465;28;20029;-82
2021/07/29 14:05:02;;;;;;;2.80;1.80;;;;;;;;;;5037556;28;20075;-82
2021/07/29 14:07:28;;;;;;;3.25;1.75;;;;;;;;;;5019870;28;20139;-87
2021/07/29 14:09:55;;;;;;;3.67;1.70;;;;;;;;;;5037587;28;20036;-84
2021/07/29 14:12:24;;;;;;;5.90;1.73;;;;;;;;;;5037511;28;20057;-82
2021/07/29 14:14:51;;;;;;;3.15;1.67;;;;;;;;;;5036176;28;20025;-85
2021/07/29 14:17:24;;;;;;;4.50;1.92;;;;;;;;;;5035729;28;20026;-89
2021/07/29 14:25:11;;;;;;;3.92;1.52;;;;;;;;;;5037732;28;20501;-94
2021/07/29 14:27:37;;;;;;;5.50;1.77;;;;;;;;;;5038067;28;20374;-87
2021/07/29 14:30:04;;;;;;;3.38;1.30;;;;;;;;;;5037126;28;20032;-84
2021/07/29 14:32:31;;;;;;;2.65;1.48;;;;;;;;;;5035750;28;20025;-84
2021/07/29 14:34:57;;;;;;;2.90;1.55;;;;;;;;;;5035907;28;20433;-85
2021/07/29 14:37:25;;;;;;;3.78;1.80;;;;;;;;;;5037085;28;20033;-86
2021/07/29 14:39:51;;;;;;;3.88;1.70;;;;;;;;;;5035710;28;20029;-93
2021/07/29 14:42:18;;;;;;;3.05;1.70;;;;;;;;;;5036674;28;20025;-90
2021/07/29 14:44:51;;;;;;;3.05;1.83;;;;;;;;;;5036798;28;20052;-92
2021/07/29 14:50:02;;;;;;;5.25;1.80;;;;;;;;;;5035395;28;20083;-93
2021/07/29 14:52:30;;;;;;;2.78;1.70;;;;;;;;;;5036268;28;20078;-82
2021/07/29 15:18:13;;;;;;;3.30;1.58;;;;;;;;;;5032480;28;20022;-82
2021/07/29 16:09:07;;;;;;;3.75;1.90;;;;;;;;;;5035402;28;20048;-93
2021/07/29 16:11:33;;;;;;;4.15;1.80;;;;;;;;;;5033537;28;20025;-84
2021/07/29 16:14:18;;;;;;;3.60;1.73;;;;;;;;;;5034917;28;20151;-90
2021/07/29 16:16:44;;;;;;;2.78;1.80;;;;;;;;;;5035158;28;20021;-82
2021/07/29 16:19:13;;;;;;;3.40;1.80;;;;;;;;;;5034269;28;20025;-82
2021/07/29 16:21:39;;;;;;;4.18;1.75;;;;;;;;;;5034142;28;20031;-93
2021/07/29 16:24:05;;;;;;;3.00;1.60;;;;;;;;;;5034323;28;20041;-82
2021/07/29 16:26:31;;;;;;;3.83;1.70;;;;;;;;;;5034402;28;20075;-81
2021/07/29 16:28:58;;;;;;;2.97;1.40;;;;;;;;;;5033199;28;20486;-81
2021/07/29 16:31:25;;;;;;;3.30;1.67;;;;;;;;;;5032905;28;20482;-86